createdAt,value
2023-03-28T00:01:40.609Z,10.60
2023-03-28T00:04:11.676Z,10.70
2023-03-28T00:06:45.580Z,10.10
2023-03-28T00:09:18.302Z,10.40
2023-03-28T00:11:49.148Z,10.30
2023-03-28T00:14:20.479Z,10.30
2023-03-28T00:16:52.251Z,10.10
2023-03-28T00:19:23.167Z,10.20
2023-03-28T00:21:54.815Z,10.10
2023-03-28T00:24:26.374Z,10.10
2023-03-28T00:27:00.387Z,10.20
2023-03-28T00:29:31.943Z,9.80
2023-03-28T00:32:02.892Z,9.60
2023-03-28T00:34:33.917Z,10.00
2023-03-28T00:37:05.451Z,10.30
2023-03-28T00:39:37.338Z,9.80
2023-03-28T00:42:14.377Z,9.70
2023-03-28T00:44:49.541Z,10.00
2023-03-28T00:47:36.818Z,9.70
2023-03-28T00:50:31.629Z,9.90
2023-03-28T00:53:16.236Z,9.90
2023-03-28T00:55:57.869Z,10.30
2023-03-28T00:58:34.000Z,9.90
2023-03-28T01:01:05.552Z,9.90
2023-03-28T01:03:37.611Z,10.10
2023-03-28T01:06:10.194Z,10.00
2023-03-28T01:08:44.262Z,10.00
2023-03-28T01:11:16.322Z,9.80
2023-03-28T01:13:51.684Z,9.50
2023-03-28T01:16:23.234Z,9.60
2023-03-28T01:18:54.732Z,9.70
2023-03-28T01:21:53.861Z,10.00
2023-03-28T01:24:46.215Z,10.20
2023-03-28T01:27:52.255Z,9.70
2023-03-28T01:31:13.361Z,9.80
2023-03-28T01:34:17.580Z,10.10
2023-03-28T01:37:15.752Z,10.00
2023-03-28T01:39:58.396Z,9.70
2023-03-28T01:43:20.796Z,10.30
2023-03-28T01:46:07.268Z,9.90
2023-03-28T01:48:58.395Z,9.90
2023-03-28T01:52:00.450Z,10.20
2023-03-28T01:54:41.248Z,10.00
2023-03-28T01:57:52.930Z,9.40
2023-03-28T02:00:43.400Z,9.80
2023-03-28T02:03:35.046Z,9.70
2023-03-28T02:06:09.070Z,9.60
2023-03-28T02:08:43.424Z,9.90
2023-03-28T02:11:14.766Z,9.60
2023-03-28T02:13:56.950Z,9.30
2023-03-28T02:16:31.595Z,9.00
2023-03-28T02:19:03.194Z,9.50
2023-03-28T02:21:51.474Z,9.80
2023-03-28T02:24:22.580Z,9.30
2023-03-28T02:26:55.339Z,9.00
2023-03-28T02:29:28.507Z,9.10
2023-03-28T02:31:59.424Z,8.90
2023-03-28T02:34:31.366Z,9.20
2023-03-28T02:37:36.233Z,9.50
2023-03-28T02:40:19.619Z,9.60
2023-03-28T02:43:12.346Z,9.60
2023-03-28T02:45:49.398Z,9.80
2023-03-28T02:48:48.063Z,9.60
2023-03-28T02:51:30.115Z,9.70
2023-03-28T02:54:13.825Z,9.60
2023-03-28T02:57:01.421Z,9.80
2023-03-28T02:59:42.988Z,10.00
2023-03-28T03:02:22.456Z,9.80
2023-03-28T03:04:57.775Z,9.60
2023-03-28T03:07:29.184Z,9.80
2023-03-28T03:10:00.876Z,9.90
2023-03-28T03:12:31.852Z,9.90
2023-03-28T03:15:04.643Z,9.80
2023-03-28T03:17:35.543Z,9.80
2023-03-28T03:20:07.528Z,9.70
2023-03-28T03:22:38.508Z,9.80
2023-03-28T03:25:13.039Z,9.60
2023-03-28T03:27:45.155Z,9.60
2023-03-28T03:30:16.149Z,9.50
2023-03-28T03:32:47.153Z,9.60
2023-03-28T03:35:19.914Z,9.70
2023-03-28T03:37:51.072Z,9.60
2023-03-28T03:40:21.972Z,9.50
2023-03-28T03:42:53.651Z,9.70
2023-03-28T03:45:24.551Z,9.50
2023-03-28T03:47:55.601Z,9.10
2023-03-28T03:50:26.510Z,9.30
2023-03-28T03:52:58.665Z,9.20
2023-03-28T03:55:29.858Z,9.40
2023-03-28T03:58:01.494Z,9.50
2023-03-28T04:00:32.701Z,9.10
2023-03-28T04:03:03.943Z,9.00
2023-03-28T04:05:34.906Z,8.90
2023-03-28T04:08:05.924Z,8.80
2023-03-28T04:10:37.360Z,8.50
2023-03-28T04:13:08.250Z,8.70
2023-03-28T04:15:39.130Z,8.70
2023-03-28T04:18:10.083Z,8.60
2023-03-28T04:20:41.579Z,8.30
2023-03-28T04:23:12.632Z,8.30
2023-03-28T04:25:43.464Z,8.10
2023-03-28T04:28:16.325Z,8.40
2023-03-28T04:30:47.179Z,8.30
2023-03-28T04:33:18.063Z,8.00
2023-03-28T04:35:51.232Z,7.70
2023-03-28T04:38:23.728Z,7.90
2023-03-28T04:40:57.985Z,7.70
2023-03-28T04:43:29.398Z,7.80
2023-03-28T04:46:00.980Z,7.70
2023-03-28T04:48:32.004Z,7.80
2023-03-28T04:51:04.037Z,7.90
2023-03-28T04:53:36.475Z,8.00
2023-03-28T04:56:08.867Z,7.90
2023-03-28T04:58:41.625Z,7.90
2023-03-28T05:01:13.647Z,7.90
2023-03-28T05:03:44.697Z,7.70
2023-03-28T05:06:15.606Z,7.80
2023-03-28T05:08:46.467Z,7.80
2023-03-28T05:11:17.455Z,7.90
2023-03-28T05:13:48.333Z,8.00
2023-03-28T05:16:19.210Z,7.80
2023-03-28T05:18:50.115Z,8.00
2023-03-28T05:21:21.457Z,7.60
2023-03-28T05:23:52.453Z,7.60
2023-03-28T05:26:23.581Z,7.70
2023-03-28T05:28:54.754Z,7.50
2023-03-28T05:31:26.138Z,7.70
2023-03-28T05:33:57.306Z,7.80
2023-03-28T05:36:28.943Z,7.60
2023-03-28T05:38:59.851Z,7.90
2023-03-28T05:41:30.815Z,7.90
2023-03-28T05:44:01.698Z,7.70
2023-03-28T05:46:32.555Z,7.70
2023-03-28T05:49:03.512Z,7.70
2023-03-28T05:51:34.410Z,7.90
2023-03-28T05:54:05.379Z,8.00
2023-03-28T05:56:36.392Z,8.00
2023-03-28T05:59:07.290Z,8.00
2023-03-28T06:01:39.814Z,7.90
2023-03-28T06:04:12.777Z,8.10
2023-03-28T06:06:45.648Z,8.30
2023-03-28T06:09:16.759Z,8.20
2023-03-28T06:11:47.640Z,8.30
2023-03-28T06:14:19.976Z,8.40
2023-03-28T06:16:51.787Z,8.50
2023-03-28T06:19:22.770Z,8.60
2023-03-28T06:21:54.017Z,8.80
2023-03-28T06:24:25.019Z,8.90
2023-03-28T06:26:55.816Z,9.20
2023-03-28T06:29:26.839Z,9.30
2023-03-28T06:31:57.953Z,9.40
2023-03-28T06:34:28.915Z,9.60
2023-03-28T06:37:00.875Z,9.70
2023-03-28T06:39:31.750Z,9.50
2023-03-28T06:42:03.458Z,9.70
2023-03-28T06:44:34.339Z,9.70
2023-03-28T06:47:05.423Z,9.70
2023-03-28T06:49:36.555Z,9.60
2023-03-28T06:52:08.141Z,9.70
2023-03-28T06:54:39.098Z,9.50
2023-03-28T06:57:09.999Z,9.60
2023-03-28T06:59:41.202Z,9.90
2023-03-28T07:02:12.507Z,10.00
2023-03-28T07:04:43.466Z,9.90
2023-03-28T07:07:14.519Z,10.00
2023-03-28T07:09:45.696Z,10.10
2023-03-28T07:12:16.723Z,10.20
2023-03-28T07:14:47.750Z,10.40
2023-03-28T07:17:19.419Z,10.40
2023-03-28T07:19:51.279Z,10.30
2023-03-28T07:22:22.136Z,10.50
2023-03-28T07:24:52.983Z,10.80
2023-03-28T07:27:25.032Z,10.90
2023-03-28T07:29:55.976Z,10.70
2023-03-28T07:32:35.618Z,10.50
2023-03-28T07:35:10.211Z,10.60
2023-03-28T07:37:41.051Z,10.80
2023-03-28T07:40:12.715Z,10.70
2023-03-28T07:42:43.555Z,10.70
2023-03-28T07:45:14.654Z,10.80
2023-03-28T07:47:45.814Z,11.00
2023-03-28T07:50:16.913Z,11.10
2023-03-28T07:52:47.852Z,11.20
2023-03-28T07:55:18.809Z,11.30
2023-03-28T07:57:50.072Z,11.30
2023-03-28T08:00:23.619Z,11.20
2023-03-28T08:02:54.584Z,11.30
2023-03-28T08:05:26.613Z,11.30
2023-03-28T08:07:58.544Z,11.60
2023-03-28T08:10:29.676Z,11.70
2023-03-28T08:13:00.885Z,11.30
2023-03-28T08:15:31.813Z,11.60
2023-03-28T08:18:03.097Z,11.70
2023-03-28T08:20:34.027Z,11.50
2023-03-28T08:23:04.946Z,11.40
2023-03-28T08:25:35.854Z,11.80
2023-03-28T08:28:07.275Z,11.30
2023-03-28T08:30:38.284Z,11.80
2023-03-28T08:33:10.101Z,11.80
2023-03-28T08:35:41.680Z,11.90
2023-03-28T08:38:13.246Z,12.00
2023-03-28T08:40:58.734Z,12.30
2023-03-28T08:43:50.314Z,11.70
2023-03-28T08:46:24.388Z,12.00
2023-03-28T08:48:56.847Z,12.10
2023-03-28T08:51:41.373Z,12.20
2023-03-28T08:54:17.631Z,12.20
2023-03-28T08:56:55.739Z,12.40
2023-03-28T09:00:13.145Z,12.40
2023-03-28T09:02:44.264Z,12.60
2023-03-28T09:05:23.756Z,12.70
2023-03-28T09:08:37.310Z,12.80
2023-03-28T09:11:48.772Z,12.70
2023-03-28T09:14:25.857Z,12.30
2023-03-28T09:17:09.329Z,12.70
2023-03-28T09:19:55.401Z,12.20
2023-03-28T09:22:49.753Z,12.50
2023-03-28T09:25:32.873Z,12.80
2023-03-28T09:28:32.968Z,12.30
2023-03-28T09:31:10.018Z,12.50
2023-03-28T09:33:45.820Z,13.20
2023-03-28T09:36:22.922Z,12.30
2023-03-28T09:39:02.501Z,12.80
2023-03-28T09:42:14.723Z,13.00
2023-03-28T09:45:00.676Z,12.70
2023-03-28T09:47:33.128Z,12.40
2023-03-28T09:50:12.519Z,13.30
2023-03-28T09:52:46.009Z,13.20
2023-03-28T09:55:20.413Z,13.50
2023-03-28T09:58:08.009Z,13.40
2023-03-28T10:00:47.293Z,12.80
2023-03-28T10:03:34.929Z,13.20
2023-03-28T10:06:27.751Z,13.50
2023-03-28T10:09:32.030Z,13.90
2023-03-28T10:12:10.491Z,14.30
2023-03-28T10:14:46.066Z,14.30
2023-03-28T10:17:29.706Z,13.40
2023-03-28T10:20:15.867Z,13.30
2023-03-28T10:22:50.439Z,13.80
2023-03-28T10:25:41.250Z,13.50
2023-03-28T10:28:28.567Z,14.10
2023-03-28T10:31:01.810Z,13.80
2023-03-28T10:33:37.476Z,14.00
2023-03-28T10:36:12.646Z,14.30
2023-03-28T10:38:44.111Z,13.20
2023-03-28T10:41:29.423Z,13.60
2023-03-28T10:44:32.743Z,13.30
2023-03-28T10:47:10.870Z,13.80
2023-03-28T10:50:02.429Z,14.60
2023-03-28T10:52:51.505Z,14.70
2023-03-28T10:55:58.805Z,15.10
2023-03-28T10:59:14.955Z,15.50
2023-03-28T11:02:09.339Z,16.00
2023-03-28T11:05:28.792Z,17.00
2023-03-28T11:08:19.488Z,16.80
2023-03-28T11:11:45.875Z,19.20
2023-03-28T11:14:33.126Z,18.80
2023-03-28T11:17:34.736Z,17.40
2023-03-28T11:20:33.276Z,18.00
2023-03-28T11:23:43.614Z,18.90
2023-03-28T11:26:49.940Z,16.90
2023-03-28T11:29:49.358Z,16.80
2023-03-28T11:32:25.002Z,16.80
2023-03-28T11:35:14.085Z,17.20
2023-03-28T11:38:17.855Z,17.30
2023-03-28T11:40:57.515Z,16.20
2023-03-28T11:43:46.622Z,17.10
2023-03-28T11:46:32.735Z,16.90
2023-03-28T11:49:09.303Z,17.10
2023-03-28T11:52:04.113Z,17.10
2023-03-28T11:54:44.118Z,17.10
2023-03-28T11:57:31.202Z,16.90
2023-03-28T12:00:34.591Z,17.00
2023-03-28T12:03:32.852Z,17.70
2023-03-28T12:06:24.548Z,17.30
2023-03-28T12:09:31.960Z,17.30
2023-03-28T12:12:27.282Z,16.30
2023-03-28T12:15:14.176Z,17.00
2023-03-28T12:17:53.259Z,16.50
2023-03-28T12:21:18.846Z,17.10
2023-03-28T12:24:14.058Z,16.90
2023-03-28T12:27:12.791Z,17.60
2023-03-28T12:30:07.632Z,17.50
2023-03-28T12:32:43.622Z,17.00
2023-03-28T12:35:18.004Z,17.60
2023-03-28T12:38:40.027Z,17.80
2023-03-28T12:41:17.936Z,17.10
2023-03-28T12:44:08.274Z,17.80
2023-03-28T12:46:55.902Z,17.60
2023-03-28T12:49:49.785Z,17.20
2023-03-28T12:52:32.931Z,17.10
2023-03-28T12:55:24.114Z,17.60
2023-03-28T12:58:27.168Z,17.80
2023-03-28T13:01:07.012Z,16.40
2023-03-28T13:03:57.377Z,17.70
2023-03-28T13:06:55.873Z,17.80
2023-03-28T13:09:45.413Z,17.80
2023-03-28T13:12:24.482Z,17.60
2023-03-28T13:15:06.830Z,17.60
2023-03-28T13:17:39.285Z,17.70
2023-03-28T13:20:16.485Z,18.10
2023-03-28T13:23:00.458Z,18.00
2023-03-28T13:25:36.922Z,17.80
2023-03-28T13:28:10.754Z,18.40
2023-03-28T13:30:45.526Z,18.00
2023-03-28T13:33:26.433Z,17.30
2023-03-28T13:36:00.586Z,18.00
2023-03-28T13:38:33.124Z,18.70
2023-03-28T13:41:09.137Z,18.50
2023-03-28T13:43:48.399Z,18.60
2023-03-28T13:46:25.904Z,18.90
2023-03-28T13:49:06.664Z,18.60
2023-03-28T13:51:52.209Z,18.80
2023-03-28T13:54:25.448Z,18.80
2023-03-28T13:57:06.966Z,18.90
2023-03-28T13:59:44.408Z,19.20
2023-03-28T14:02:42.542Z,19.70
2023-03-28T14:05:24.017Z,19.10
2023-03-28T14:08:05.419Z,18.70
2023-03-28T14:10:39.961Z,19.70
2023-03-28T14:13:25.502Z,19.10
2023-03-28T14:15:56.899Z,19.40
2023-03-28T14:18:42.167Z,19.40
2023-03-28T14:21:13.272Z,20.00
2023-03-28T14:24:06.344Z,19.50
2023-03-28T14:26:37.612Z,18.90
2023-03-28T14:29:13.973Z,18.00
2023-03-28T14:31:47.605Z,19.50
2023-03-28T14:34:26.315Z,20.30
2023-03-28T14:37:06.280Z,18.70
2023-03-28T14:39:42.177Z,18.80
2023-03-28T14:42:17.526Z,18.70
2023-03-28T14:44:53.737Z,18.80
2023-03-28T14:47:33.330Z,19.00
2023-03-28T14:50:05.433Z,18.80
2023-03-28T14:52:40.885Z,18.50
2023-03-28T14:55:22.489Z,18.90
2023-03-28T14:57:55.786Z,18.60
2023-03-28T15:00:43.333Z,18.80
2023-03-28T15:03:26.387Z,18.30
2023-03-28T15:05:58.544Z,18.60
2023-03-28T15:08:34.443Z,19.10
2023-03-28T15:11:08.771Z,19.20
2023-03-28T15:13:44.254Z,19.40
2023-03-28T15:16:24.471Z,18.90
2023-03-28T15:19:09.402Z,19.80
2023-03-28T15:21:42.340Z,19.30
2023-03-28T15:24:17.058Z,19.60
2023-03-28T15:26:54.036Z,19.30
2023-03-28T15:29:26.303Z,19.60
2023-03-28T15:32:05.209Z,20.50
2023-03-28T15:34:46.968Z,20.40
2023-03-28T15:37:22.589Z,20.90
2023-03-28T15:39:55.530Z,20.00
2023-03-28T15:42:35.572Z,19.90
2023-03-28T15:45:21.027Z,19.40
2023-03-28T15:47:56.842Z,19.50
2023-03-28T15:50:36.427Z,19.70
2023-03-28T15:53:14.662Z,20.00
2023-03-28T15:55:48.568Z,21.00
2023-03-28T15:58:21.725Z,20.00
2023-03-28T16:00:54.350Z,20.80
2023-03-28T16:03:25.212Z,20.30
2023-03-28T16:06:13.989Z,20.20
2023-03-28T16:09:12.093Z,19.90
2023-03-28T16:11:44.187Z,20.00
2023-03-28T16:14:20.579Z,20.70
2023-03-28T16:16:55.851Z,20.10
2023-03-28T16:19:28.223Z,20.00
2023-03-28T16:22:01.059Z,20.00
2023-03-28T16:24:32.250Z,20.20
2023-03-28T16:27:03.217Z,20.70
2023-03-28T16:29:34.375Z,20.00
2023-03-28T16:32:05.670Z,20.60
2023-03-28T16:34:36.611Z,21.20
2023-03-28T16:37:09.032Z,19.60
2023-03-28T16:39:39.953Z,19.70
2023-03-28T16:42:11.050Z,19.60
2023-03-28T16:44:42.010Z,19.50
2023-03-28T16:47:12.895Z,19.70
2023-03-28T16:49:43.735Z,20.10
2023-03-28T16:52:14.677Z,19.80
2023-03-28T16:54:48.477Z,19.40
2023-03-28T16:57:19.389Z,19.70
2023-03-28T16:59:50.359Z,19.90
2023-03-28T17:02:21.565Z,19.80
2023-03-28T17:04:52.561Z,19.20
2023-03-28T17:07:23.477Z,19.00
2023-03-28T17:09:54.384Z,18.80
2023-03-28T17:12:26.237Z,18.80
2023-03-28T17:14:58.108Z,18.30
2023-03-28T17:17:29.031Z,18.20
2023-03-28T17:20:01.165Z,18.20
2023-03-28T17:22:32.573Z,18.40
2023-03-28T17:25:04.391Z,18.20
2023-03-28T17:27:35.277Z,18.10
2023-03-28T17:30:07.360Z,18.00
2023-03-28T17:32:39.272Z,17.70
2023-03-28T17:35:12.184Z,17.50
2023-03-28T17:37:43.302Z,17.40
2023-03-28T17:40:15.484Z,17.20
2023-03-28T17:42:46.399Z,17.00
2023-03-28T17:45:19.724Z,17.10
2023-03-28T17:47:50.654Z,17.10
2023-03-28T17:50:22.732Z,17.20
2023-03-28T17:52:54.070Z,17.00
2023-03-28T17:55:25.787Z,17.00
2023-03-28T17:57:56.761Z,16.70
2023-03-28T18:00:30.220Z,16.80
2023-03-28T18:03:02.382Z,16.60
2023-03-28T18:05:33.493Z,16.60
2023-03-28T18:08:04.666Z,16.50
2023-03-28T18:10:38.919Z,16.30
2023-03-28T18:13:09.811Z,16.40
2023-03-28T18:15:42.252Z,16.30
2023-03-28T18:18:13.669Z,16.40
2023-03-28T18:20:45.318Z,16.40
2023-03-28T18:23:16.341Z,16.70
2023-03-28T18:25:48.617Z,16.50
2023-03-28T18:28:26.560Z,16.70
2023-03-28T18:31:11.396Z,16.50
2023-03-28T18:33:44.182Z,16.80
2023-03-28T18:36:15.629Z,16.80
2023-03-28T18:38:47.806Z,16.60
2023-03-28T18:41:18.783Z,16.50
2023-03-28T18:43:49.831Z,16.70
2023-03-28T18:46:20.830Z,16.70
2023-03-28T18:48:53.977Z,16.40
2023-03-28T18:51:25.345Z,16.70
2023-03-28T18:54:04.025Z,16.70
2023-03-28T18:56:34.960Z,16.60
2023-03-28T18:59:06.173Z,16.30
2023-03-28T19:01:41.706Z,16.00
2023-03-28T19:04:14.420Z,15.90
2023-03-28T19:06:46.526Z,16.20
2023-03-28T19:09:17.449Z,15.90
2023-03-28T19:11:51.294Z,16.20
2023-03-28T19:14:22.691Z,16.20
2023-03-28T19:16:53.767Z,16.00
2023-03-28T19:19:25.408Z,16.20
2023-03-28T19:21:56.462Z,16.20
2023-03-28T19:24:27.336Z,16.20
2023-03-28T19:26:59.728Z,16.40
2023-03-28T19:29:32.085Z,15.90
2023-03-28T19:32:03.253Z,16.00
2023-03-28T19:34:34.236Z,16.00
2023-03-28T19:37:05.364Z,15.80
2023-03-28T19:39:36.282Z,16.00
2023-03-28T19:42:07.281Z,15.80
2023-03-28T19:44:38.416Z,15.70
2023-03-28T19:47:09.347Z,15.90
2023-03-28T19:49:40.454Z,15.90
2023-03-28T19:52:11.350Z,15.90
2023-03-28T19:54:42.247Z,16.00
2023-03-28T19:57:13.709Z,16.20
2023-03-28T19:59:44.688Z,16.20
2023-03-28T20:02:15.557Z,16.00
2023-03-28T20:04:46.514Z,15.90
2023-03-28T20:07:19.369Z,15.80
2023-03-28T20:09:50.304Z,15.70
2023-03-28T20:12:21.351Z,15.90
2023-03-28T20:14:53.065Z,15.70
2023-03-28T20:17:25.390Z,15.80
2023-03-28T20:19:56.231Z,15.50
2023-03-28T20:22:29.822Z,15.80
2023-03-28T20:25:01.375Z,15.90
2023-03-28T20:27:32.252Z,16.20
2023-03-28T20:30:03.922Z,16.10
2023-03-28T20:32:35.081Z,15.90
2023-03-28T20:35:06.901Z,16.10
2023-03-28T20:37:38.060Z,16.20
2023-03-28T20:40:12.377Z,16.40
2023-03-28T20:42:43.235Z,16.10
2023-03-28T20:45:22.177Z,16.40
2023-03-28T20:48:06.394Z,16.20
2023-03-28T20:50:41.404Z,16.20
2023-03-28T20:53:16.144Z,16.40
2023-03-28T20:55:48.138Z,16.10
2023-03-28T20:58:19.321Z,16.30
2023-03-28T21:00:57.206Z,16.50
2023-03-28T21:03:46.681Z,16.10
2023-03-28T21:06:24.721Z,16.60
2023-03-28T21:09:00.461Z,16.30
2023-03-28T21:11:35.956Z,16.00
2023-03-28T21:14:09.395Z,15.80
2023-03-28T21:16:40.774Z,15.60
2023-03-28T21:19:12.064Z,15.90
2023-03-28T21:21:43.082Z,16.10
2023-03-28T21:24:14.128Z,15.90
2023-03-28T21:26:45.016Z,16.20
2023-03-28T21:29:16.233Z,15.30
2023-03-28T21:31:47.394Z,15.00
2023-03-28T21:34:18.323Z,16.00
2023-03-28T21:36:49.700Z,16.40
2023-03-28T21:39:20.792Z,15.90
2023-03-28T21:41:51.773Z,16.10
2023-03-28T21:44:22.683Z,16.00
2023-03-28T21:46:53.654Z,15.90
2023-03-28T21:49:25.255Z,16.60
2023-03-28T21:51:56.471Z,16.60
2023-03-28T21:54:27.374Z,16.30
2023-03-28T21:56:59.167Z,15.90
2023-03-28T21:59:30.060Z,15.80
2023-03-28T22:02:01.040Z,15.90
2023-03-28T22:04:32.094Z,15.90
2023-03-28T22:07:02.960Z,15.70
2023-03-28T22:09:34.043Z,15.70
2023-03-28T22:12:06.706Z,15.70
2023-03-28T22:14:37.573Z,16.00
2023-03-28T22:17:09.218Z,16.10
2023-03-28T22:19:40.110Z,16.00
2023-03-28T22:22:11.252Z,16.10
2023-03-28T22:24:42.117Z,16.30
2023-03-28T22:27:13.283Z,16.00
2023-03-28T22:29:44.117Z,15.80
2023-03-28T22:32:15.615Z,16.00
2023-03-28T22:34:48.065Z,16.00
2023-03-28T22:37:19.424Z,16.00
2023-03-28T22:39:50.356Z,16.60
2023-03-28T22:42:21.993Z,16.40
2023-03-28T22:44:52.942Z,16.60
2023-03-28T22:47:30.519Z,16.30
2023-03-28T22:50:01.602Z,15.40
2023-03-28T22:52:32.462Z,14.30
2023-03-28T22:55:05.175Z,14.50
2023-03-28T22:57:36.126Z,14.60
2023-03-28T23:00:08.374Z,14.30
2023-03-28T23:02:39.832Z,14.00
2023-03-28T23:05:11.341Z,14.00
2023-03-28T23:07:42.253Z,13.10
2023-03-28T23:10:17.550Z,13.70
2023-03-28T23:12:49.977Z,13.50
2023-03-28T23:15:20.879Z,14.20
2023-03-28T23:17:52.589Z,14.10
2023-03-28T23:20:24.675Z,14.10
2023-03-28T23:22:55.618Z,14.20
2023-03-28T23:25:28.581Z,13.70
2023-03-28T23:27:59.467Z,14.30
2023-03-28T23:30:30.437Z,13.90
2023-03-28T23:33:01.953Z,14.30
2023-03-28T23:35:33.072Z,14.60
2023-03-28T23:38:05.109Z,14.50
2023-03-28T23:40:36.090Z,14.70
2023-03-28T23:43:07.619Z,14.10
2023-03-28T23:45:38.825Z,14.20
2023-03-28T23:48:09.828Z,14.00
2023-03-28T23:50:41.117Z,14.40
2023-03-28T23:53:11.999Z,14.60
2023-03-28T23:55:43.460Z,14.70
2023-03-28T23:58:14.344Z,14.60
